createdAt,value
2023-05-17T00:00:39.073Z,11.27
2023-05-17T00:05:41.304Z,10.10
2023-05-17T00:10:43.713Z,10.85
2023-05-17T00:15:45.889Z,10.98
2023-05-17T00:20:48.146Z,10.30
2023-05-17T00:25:50.568Z,11.23
2023-05-17T00:30:52.810Z,9.98
2023-05-17T00:35:55.055Z,11.82
2023-05-17T00:40:57.331Z,11.02
2023-05-17T00:45:59.550Z,12.18
2023-05-17T00:51:01.957Z,11.18
2023-05-17T00:56:04.864Z,11.38
2023-05-17T01:01:07.421Z,11.43
2023-05-17T01:06:09.787Z,10.60
2023-05-17T01:11:35.895Z,11.18
2023-05-17T01:16:44.935Z,10.75
2023-05-17T01:22:18.036Z,10.32
2023-05-17T01:27:22.436Z,11.05
2023-05-17T01:32:26.569Z,11.68
2023-05-17T01:37:28.832Z,10.38
2023-05-17T01:42:33.743Z,10.48
2023-05-17T01:48:07.472Z,9.90
2023-05-17T01:53:17.706Z,8.30
2023-05-17T01:58:23.193Z,9.90
2023-05-17T02:03:28.148Z,9.07
2023-05-17T02:08:30.371Z,8.45
2023-05-17T02:13:32.599Z,9.35
2023-05-17T02:18:36.121Z,9.02
2023-05-17T02:23:38.813Z,9.55
2023-05-17T02:28:41.413Z,9.68
2023-05-17T02:33:43.785Z,9.40
2023-05-17T02:38:46.065Z,10.02
2023-05-17T02:43:48.352Z,9.32
2023-05-17T02:48:50.697Z,9.13
2023-05-17T02:53:52.904Z,9.35
2023-05-17T02:58:57.977Z,9.85
2023-05-17T03:04:00.214Z,8.93
2023-05-17T03:09:02.454Z,9.63
2023-05-17T03:14:04.699Z,9.93
2023-05-17T03:19:07.091Z,10.05
2023-05-17T03:24:09.667Z,9.55
2023-05-17T03:29:12.202Z,10.05
2023-05-17T03:34:14.346Z,10.15
2023-05-17T03:39:16.668Z,10.68
2023-05-17T03:44:18.908Z,10.50
2023-05-17T03:49:21.398Z,11.43
2023-05-17T03:54:23.750Z,11.27
2023-05-17T03:59:26.026Z,12.30
2023-05-17T04:04:28.390Z,11.40
2023-05-17T04:09:32.470Z,12.15
2023-05-17T04:14:34.705Z,11.68
2023-05-17T04:19:36.934Z,11.13
2023-05-17T04:24:39.171Z,11.32
2023-05-17T04:29:41.741Z,10.38
2023-05-17T04:34:44.062Z,11.40
2023-05-17T04:39:46.553Z,9.82
2023-05-17T04:44:49.069Z,10.82
2023-05-17T04:49:52.017Z,11.27
2023-05-17T04:54:54.265Z,10.65
2023-05-17T04:59:56.526Z,11.43
2023-05-17T05:04:59.041Z,8.63
2023-05-17T05:10:01.885Z,11.32
2023-05-17T05:15:04.391Z,10.52
2023-05-17T05:20:07.578Z,9.85
2023-05-17T05:25:10.288Z,9.60
2023-05-17T05:30:13.275Z,10.27
2023-05-17T05:35:15.618Z,10.95
2023-05-17T05:40:17.898Z,9.40
2023-05-17T05:45:20.398Z,9.73
2023-05-17T05:50:22.730Z,8.90
2023-05-17T05:55:25.326Z,9.63
2023-05-17T06:00:27.940Z,9.90
2023-05-17T06:05:30.496Z,10.15
2023-05-17T06:10:33.257Z,9.15
2023-05-17T06:15:35.549Z,9.23
2023-05-17T06:20:37.836Z,9.00
2023-05-17T06:25:40.873Z,9.20
2023-05-17T06:30:43.159Z,9.50
2023-05-17T06:35:55.532Z,8.85
2023-05-17T06:41:01.894Z,7.40
2023-05-17T06:46:04.890Z,7.00
2023-05-17T06:51:08.253Z,8.35
2023-05-17T06:56:10.509Z,6.93
2023-05-17T07:01:14.065Z,7.43
2023-05-17T07:06:16.465Z,7.55
2023-05-17T07:11:18.748Z,6.30
2023-05-17T07:16:21.084Z,6.20
2023-05-17T07:21:26.130Z,5.70
2023-05-17T07:26:28.407Z,5.15
2023-05-17T07:31:30.609Z,4.47
2023-05-17T07:36:33.086Z,5.10
2023-05-17T07:41:35.871Z,5.05
2023-05-17T07:46:38.902Z,3.85
2023-05-17T07:51:41.504Z,3.00
2023-05-17T07:56:43.816Z,1.92
2023-05-17T08:01:46.147Z,2.08
2023-05-17T08:06:48.939Z,1.60
2023-05-17T08:11:51.961Z,1.52
2023-05-17T08:16:54.270Z,1.73
2023-05-17T08:21:56.617Z,1.52
2023-05-17T08:26:59.036Z,1.50
2023-05-17T08:32:01.670Z,1.90
2023-05-17T08:37:04.055Z,1.77
2023-05-17T08:42:09.216Z,1.73
2023-05-17T08:47:13.061Z,1.67
2023-05-17T08:52:16.099Z,1.38
2023-05-17T08:57:18.651Z,1.20
2023-05-17T09:02:22.491Z,1.58
2023-05-17T09:07:25.228Z,1.17
2023-05-17T09:12:27.482Z,1.52
2023-05-17T09:17:29.756Z,1.17
2023-05-17T09:22:32.350Z,1.58
2023-05-17T09:27:34.703Z,1.20
2023-05-17T09:32:43.486Z,1.17
2023-05-17T09:37:47.584Z,1.50
2023-05-17T09:42:50.185Z,2.20
2023-05-17T09:47:53.096Z,1.10
2023-05-17T09:52:55.564Z,1.73
2023-05-17T09:58:04.465Z,0.80
2023-05-17T10:08:11.485Z,0.90
2023-05-17T10:13:16.458Z,1.10
2023-05-17T10:18:19.203Z,1.30
2023-05-17T10:23:22.939Z,1.90
2023-05-17T10:28:27.408Z,1.10
2023-05-17T10:33:32.699Z,1.25
2023-05-17T10:38:41.663Z,1.52
2023-05-17T10:43:46.923Z,1.00
2023-05-17T10:48:53.349Z,0.85
2023-05-17T10:54:18.980Z,0.93
2023-05-17T10:59:29.953Z,1.00
2023-05-17T11:04:43.716Z,0.80
2023-05-17T11:09:49.842Z,0.70
2023-05-17T11:14:56.060Z,0.93
2023-05-17T11:20:07.601Z,0.95
2023-05-17T11:25:14.666Z,0.82
2023-05-17T11:30:22.813Z,0.52
2023-05-17T11:35:29.151Z,1.08
2023-05-17T11:40:32.714Z,0.90
2023-05-17T11:45:53.511Z,0.70
2023-05-17T11:50:58.036Z,0.82
2023-05-17T11:56:07.482Z,0.70
2023-05-17T12:01:09.842Z,0.90
2023-05-17T12:06:17.738Z,0.80
2023-05-17T12:11:22.172Z,0.80
2023-05-17T12:16:25.822Z,1.10
2023-05-17T12:21:28.257Z,1.05
2023-05-17T12:26:31.017Z,1.05
2023-05-17T12:31:39.478Z,1.08
2023-05-17T12:36:42.388Z,0.90
2023-05-17T12:41:45.103Z,2.63
2023-05-17T12:46:54.214Z,1.52
2023-05-17T12:51:56.720Z,1.50
2023-05-17T12:56:59.110Z,1.08
2023-05-17T13:02:02.076Z,1.00
2023-05-17T13:07:05.978Z,0.88
2023-05-17T13:12:08.653Z,0.90
2023-05-17T13:17:25.512Z,0.90
2023-05-17T13:22:28.300Z,0.80
2023-05-17T13:27:30.693Z,0.98
2023-05-17T13:32:33.206Z,0.70
2023-05-17T13:37:36.775Z,0.60
2023-05-17T13:42:39.137Z,0.60
2023-05-17T13:47:41.878Z,0.45
2023-05-17T13:52:44.913Z,0.60
2023-05-17T13:57:47.665Z,0.70
2023-05-17T14:02:50.245Z,0.70
2023-05-17T14:07:53.109Z,0.50
2023-05-17T14:12:55.331Z,0.55
2023-05-17T14:17:57.660Z,0.32
2023-05-17T14:23:00.959Z,0.65
2023-05-17T14:28:03.462Z,0.60
2023-05-17T14:33:05.800Z,0.52
2023-05-17T14:38:08.216Z,0.50
2023-05-17T14:43:10.658Z,0.73
2023-05-17T14:48:13.145Z,0.70
2023-05-17T14:53:15.572Z,0.50
2023-05-17T14:58:17.997Z,0.40
2023-05-17T15:03:22.308Z,0.80
2023-05-17T15:08:25.384Z,1.10
2023-05-17T15:13:27.827Z,0.30
2023-05-17T15:18:30.218Z,0.50
2023-05-17T15:23:32.706Z,0.88
2023-05-17T15:28:35.118Z,0.63
2023-05-17T15:33:39.901Z,0.47
2023-05-17T15:38:42.662Z,0.60
2023-05-17T15:43:45.297Z,1.02
2023-05-17T15:48:47.713Z,0.60
2023-05-17T15:53:50.263Z,0.63
2023-05-17T15:58:53.040Z,0.70
2023-05-17T16:03:55.370Z,1.42
2023-05-17T16:08:57.724Z,0.60
2023-05-17T16:14:00.188Z,0.60
2023-05-17T16:19:04.873Z,0.65
2023-05-17T16:24:07.604Z,0.40
2023-05-17T16:29:09.887Z,0.70
2023-05-17T16:34:12.252Z,0.70
2023-05-17T16:39:14.634Z,0.98
2023-05-17T16:44:17.106Z,0.80
2023-05-17T16:49:19.685Z,0.70
2023-05-17T16:54:22.042Z,0.90
2023-05-17T16:59:24.456Z,0.80
2023-05-17T17:04:27.001Z,1.08
2023-05-17T17:09:29.404Z,1.10
2023-05-17T17:14:32.443Z,1.58
2023-05-17T17:19:34.856Z,1.15
2023-05-17T17:24:37.135Z,1.15
2023-05-17T17:29:39.468Z,1.17
2023-05-17T17:34:41.725Z,1.30
2023-05-17T17:39:44.197Z,6.25
2023-05-17T17:44:46.773Z,4.60
2023-05-17T17:49:49.215Z,2.40
2023-05-17T17:54:51.758Z,1.40
2023-05-17T17:59:55.083Z,1.27
2023-05-17T18:04:57.658Z,1.10
2023-05-17T18:10:02.188Z,1.02
2023-05-17T18:15:06.490Z,0.90
2023-05-17T18:20:09.264Z,1.10
2023-05-17T18:25:11.608Z,1.35
2023-05-17T18:30:14.390Z,1.48
2023-05-17T18:35:17.806Z,1.38
2023-05-17T18:40:20.271Z,5.88
2023-05-17T18:45:22.814Z,6.30
2023-05-17T18:50:25.251Z,6.57
2023-05-17T18:55:27.789Z,3.97
2023-05-17T19:00:30.572Z,2.03
2023-05-17T19:05:33.203Z,3.80
2023-05-17T19:10:35.596Z,5.22
2023-05-17T19:15:38.045Z,2.38
2023-05-17T19:20:40.526Z,2.63
2023-05-17T19:25:42.967Z,1.67
2023-05-17T19:30:45.346Z,1.35
2023-05-17T19:35:47.853Z,1.40
2023-05-17T19:40:50.429Z,1.50
2023-05-17T19:45:52.886Z,2.05
2023-05-17T19:50:56.729Z,1.60
2023-05-17T19:56:06.359Z,1.38
2023-05-17T20:06:14.621Z,1.02
2023-05-17T20:11:17.137Z,1.23
2023-05-17T20:16:19.580Z,1.23
2023-05-17T20:21:23.315Z,1.70
2023-05-17T20:26:27.403Z,1.30
2023-05-17T20:31:29.808Z,1.33
2023-05-17T20:36:32.665Z,1.58
2023-05-17T20:41:35.002Z,1.02
2023-05-17T20:46:37.446Z,1.63
2023-05-17T20:51:40.262Z,1.52
2023-05-17T20:56:42.810Z,1.70
2023-05-17T21:01:45.248Z,1.88
2023-05-17T21:06:47.773Z,1.63
2023-05-17T21:11:52.467Z,1.75
2023-05-17T21:16:56.509Z,1.60
2023-05-17T21:21:58.917Z,1.77
2023-05-17T21:27:03.496Z,2.13
2023-05-17T21:32:06.436Z,1.80
2023-05-17T21:37:08.817Z,1.23
2023-05-17T21:42:11.463Z,1.13
2023-05-17T21:47:13.966Z,0.90
2023-05-17T21:52:16.582Z,0.73
2023-05-17T21:57:21.555Z,1.00
2023-05-17T22:02:24.089Z,1.10
2023-05-17T22:07:26.721Z,1.25
2023-05-17T22:12:29.198Z,1.98
2023-05-17T22:17:46.913Z,1.60
2023-05-17T22:22:50.770Z,1.33
2023-05-17T22:27:53.179Z,1.25
2023-05-17T22:32:57.604Z,1.17
2023-05-17T22:38:00.201Z,1.20
2023-05-17T22:43:02.626Z,1.58
2023-05-17T22:48:06.131Z,1.15
2023-05-17T22:53:08.560Z,1.45
2023-05-17T22:58:11.227Z,1.40
2023-05-17T23:03:14.161Z,1.20
2023-05-17T23:08:16.498Z,1.20
2023-05-17T23:13:19.162Z,1.15
2023-05-17T23:18:21.686Z,1.20
2023-05-17T23:23:24.481Z,1.10
2023-05-17T23:28:27.136Z,0.90
2023-05-17T23:33:32.438Z,1.10
2023-05-17T23:38:34.802Z,0.93
2023-05-17T23:43:37.124Z,1.00
2023-05-17T23:48:39.684Z,0.93
2023-05-17T23:53:42.669Z,0.90
2023-05-17T23:58:45.951Z,1.00
